Time;durP1;ratioP1;P1;durP2;ratioP2;P2;SDS_P1;SDS_P2;PMS_P1;PMS_P2;Temp;Humidity;BMP_temperature;BMP_pressure;BME280_temperature;BME280_humidity;BME280_pressure;Samples;Min_cycle;Max_cycle;Signal;HPM_P1;HPM_P2
2022/02/06 00:00:45;;;;;;;3.25;2.10;;;10.10;78.20;;;;;;4993916;28;20051;-79
2022/02/06 00:03:13;;;;;;;2.55;1.83;;;10.10;78.20;;;;;;4987735;28;20068;-80
2022/02/06 00:05:39;;;;;;;4.53;2.10;;;10.10;78.20;;;;;;4979284;28;20030;-80
2022/02/06 00:08:10;;;;;;;2.00;1.73;;;10.10;78.20;;;;;;4994464;28;20551;-80
2022/02/06 00:10:35;;;;;;;2.45;1.75;;;10.10;78.20;;;;;;4979795;28;20120;-81
2022/02/06 00:13:02;;;;;;;3.97;1.90;;;10.10;78.20;;;;;;4994042;28;20117;-80
2022/02/06 00:15:27;;;;;;;3.67;1.80;;;10.10;78.20;;;;;;5011365;28;20044;-80
2022/02/06 00:17:53;;;;;;;4.15;2.03;;;10.10;78.20;;;;;;4993188;28;20407;-81
2022/02/06 00:20:20;;;;;;;2.97;1.80;;;10.10;78.20;;;;;;4992334;28;20038;-82
2022/02/06 00:22:58;;;;;;;3.60;1.88;;;10.10;78.20;;;;;;4996729;28;20545;-80
2022/02/06 00:26:32;;;;;;;2.45;2.00;;;10.10;78.20;;;;;;4996852;28;20029;-83
2022/02/06 00:28:36;;;;;;;2.92;1.85;;;10.10;78.20;;;;;;4981576;28;20029;-86
2022/02/06 00:39:03;;;;;;;3.10;1.98;;;10.10;78.30;;;;;;5000049;28;20466;-81
2022/02/06 00:41:25;;;;;;;3.38;1.85;;;10.10;78.30;;;;;;5006406;28;20037;-81
2022/02/06 00:43:52;;;;;;;2.60;1.70;;;10.10;78.20;;;;;;4990312;28;20125;-80
2022/02/06 00:46:20;;;;;;;3.00;2.15;;;10.10;78.30;;;;;;5002114;28;20109;-82
2022/02/06 00:48:53;;;;;;;3.25;2.00;;;10.10;78.30;;;;;;4999234;28;20064;-82
2022/02/06 00:53:48;;;;;;;2.67;1.90;;;10.10;78.30;;;;;;5004860;28;20038;-85
2022/02/06 00:56:14;;;;;;;3.47;2.10;;;10.10;78.30;;;;;;4985729;28;20903;-84
2022/02/06 00:58:40;;;;;;;3.38;1.80;;;10.10;78.30;;;;;;4965876;28;20398;-81
2022/02/06 01:01:06;;;;;;;4.20;2.28;;;10.20;78.40;;;;;;5004221;28;20040;-81
2022/02/06 01:03:32;;;;;;;3.90;1.90;;;10.20;78.40;;;;;;4977035;28;20030;-81
2022/02/06 01:05:58;;;;;;;2.70;1.98;;;10.20;78.40;;;;;;4981999;28;20041;-81
2022/02/06 01:08:23;;;;;;;3.33;1.92;;;10.20;78.40;;;;;;4990223;28;20022;-83
2022/02/06 01:10:50;;;;;;;3.38;1.90;;;10.20;78.40;;;;;;4976527;28;20398;-85
2022/02/06 01:14:05;;;;;;;3.25;2.10;;;10.10;78.70;;;;;;5001887;28;20120;-80
2022/02/06 01:19:08;;;;;;;2.85;1.90;;;10.20;78.40;;;;;;4973213;28;20054;-81
2022/02/06 01:24:06;;;;;;;2.58;2.00;;;10.20;78.40;;;;;;5004286;28;20459;-82
2022/02/06 01:26:39;;;;;;;3.20;1.73;;;10.20;78.40;;;;;;5001692;28;20084;-82
2022/02/06 01:29:36;;;;;;;4.40;2.50;;;10.20;78.40;;;;;;4966910;28;20041;-81
2022/02/06 01:34:26;;;;;;;3.65;2.13;;;10.20;78.40;;;;;;4989491;28;20038;-82
2022/02/06 01:37:17;;;;;;;4.10;1.98;;;10.20;78.40;;;;;;5010605;28;20383;-80
2022/02/06 01:42:27;;;;;;;2.97;2.03;;;10.20;78.40;;;;;;4988592;28;20036;-83
2022/02/06 02:04:15;;;;;;;2.63;1.90;;;10.20;78.50;;;;;;5009817;28;20133;-82
2022/02/06 02:14:34;;;;;;;3.13;2.00;;;10.20;78.60;;;;;;5000581;28;20030;-82
2022/02/06 02:28:03;;;;;;;3.08;1.90;;;10.20;78.60;;;;;;4973167;28;20041;-82
2022/02/06 02:44:59;;;;;;;3.22;1.88;;;10.20;78.60;;;;;;4964277;28;20037;-83
2022/02/06 02:47:23;;;;;;;3.72;2.20;;;10.20;78.60;;;;;;5011179;28;20040;-83
2022/02/06 02:49:59;;;;;;;4.32;1.83;;;10.20;78.70;;;;;;5010527;28;20475;-85
2022/02/06 02:55:12;;;;;;;2.53;1.60;;;10.30;78.80;;;;;;5022600;28;20049;-83
2022/02/06 02:57:45;;;;;;;4.28;1.70;;;10.30;78.70;;;;;;5015897;28;20036;-89
2022/02/06 03:02:47;;;;;;;;;;;10.30;78.70;;;;;;5034515;28;20041;-86
2022/02/06 03:05:14;;;;;;;2.20;1.70;;;10.30;78.70;;;;;;5018941;28;20274;-83
2022/02/06 03:07:39;;;;;;;2.22;1.48;;;10.30;78.60;;;;;;5013777;28;20033;-84
2022/02/06 03:10:05;;;;;;;2.45;1.55;;;10.30;78.80;;;;;;5019161;28;20389;-83
2022/02/06 03:12:34;;;;;;;2.10;1.55;;;10.30;78.80;;;;;;4989118;28;20038;-86
2022/02/06 03:15:10;;;;;;;2.85;1.63;;;10.30;78.80;;;;;;5002786;28;20475;-84
2022/02/06 03:17:39;;;;;;;3.10;1.80;;;10.30;78.80;;;;;;5022598;28;20036;-83
2022/02/06 03:20:08;;;;;;;2.13;1.88;;;10.30;78.80;;;;;;5004177;28;20061;-83
2022/02/06 03:22:47;;;;;;;4.30;1.70;;;10.30;78.70;;;;;;5023750;28;20030;-82
2022/02/06 03:25:18;;;;;;;3.17;1.75;;;10.30;78.80;;;;;;5018122;28;20061;-84
2022/02/06 03:27:44;;;;;;;2.30;1.60;;;10.30;78.70;;;;;;5013230;28;20117;-82
2022/02/06 03:30:10;;;;;;;2.83;1.95;;;10.30;78.70;;;;;;5004651;28;20565;-83
2022/02/06 03:32:36;;;;;;;2.85;1.73;;;10.30;78.70;;;;;;5004536;28;20045;-84
2022/02/06 03:35:02;;;;;;;2.50;1.80;;;10.30;78.70;;;;;;4983752;28;20030;-83
2022/02/06 03:37:28;;;;;;;3.03;2.00;;;10.30;78.70;;;;;;5008425;28;20021;-83
2022/02/06 03:39:55;;;;;;;2.85;1.80;;;10.30;78.70;;;;;;5027694;28;20026;-83
2022/02/06 03:42:24;;;;;;;2.63;1.70;;;10.30;78.70;;;;;;5012668;28;20042;-84
2022/02/06 03:44:58;;;;;;;3.17;1.83;;;10.40;78.80;;;;;;5012679;28;20037;-83
2022/02/06 03:47:32;;;;;;;4.13;1.92;;;10.40;78.80;;;;;;5021298;28;20021;-84
2022/02/06 03:50:00;;;;;;;3.70;1.85;;;10.40;78.70;;;;;;5010872;28;20036;-83
2022/02/06 03:52:42;;;;;;;2.38;1.60;;;10.40;78.70;;;;;;5003959;28;20389;-83
2022/02/06 03:55:08;;;;;;;2.70;1.50;;;10.40;78.80;;;;;;5025699;28;20025;-84
2022/02/06 03:57:34;;;;;;;3.60;1.95;;;10.40;78.70;;;;;;5010470;28;20041;-83
2022/02/06 04:00:00;;;;;;;2.30;1.80;;;10.40;78.70;;;;;;4976492;28;20048;-84
2022/02/06 04:02:25;;;;;;;3.03;1.85;;;10.40;78.80;;;;;;5023546;28;20274;-85
2022/02/06 04:04:51;;;;;;;2.72;1.58;;;10.40;78.80;;;;;;5011772;28;20041;-89
2022/02/06 04:07:17;;;;;;;2.72;1.60;;;10.40;78.80;;;;;;5009162;28;20029;-87
2022/02/06 04:09:49;;;;;;;2.63;1.50;;;10.40;78.70;;;;;;5014823;28;20025;-84
2022/02/06 04:12:17;;;;;;;2.22;1.65;;;10.40;78.80;;;;;;5008669;28;20104;-84
2022/02/06 04:14:54;;;;;;;2.45;1.60;;;10.40;78.70;;;;;;4981200;28;20475;-85
2022/02/06 04:17:24;;;;;;;2.47;1.60;;;10.40;78.80;;;;;;4997859;28;20033;-83
2022/02/06 04:19:51;;;;;;;2.35;1.58;;;10.40;78.80;;;;;;4991303;28;20057;-83
2022/02/06 04:22:17;;;;;;;2.15;1.70;;;10.40;78.80;;;;;;4978005;28;20470;-83
2022/02/06 04:24:44;;;;;;;2.20;1.88;;;10.40;78.80;;;;;;5004917;28;20036;-85
2022/02/06 04:27:10;;;;;;;2.85;1.65;;;10.40;78.80;;;;;;4981530;28;20026;-83
2022/02/06 04:29:36;;;;;;;3.40;1.65;;;10.40;78.80;;;;;;5007632;28;20065;-84
2022/02/06 04:32:03;;;;;;;2.22;1.60;;;10.40;78.70;;;;;;5004130;28;20029;-83
2022/02/06 04:34:30;;;;;;;3.33;1.67;;;10.40;78.80;;;;;;5000148;28;20069;-83
2022/02/06 04:39:56;;;;;;;2.03;1.60;;;10.40;78.80;;;;;;5005246;28;20033;-86
2022/02/06 04:50:27;;;;;;;2.35;1.80;;;10.50;78.80;;;;;;5008181;28;20022;-86
2022/02/06 05:30:01;;;;;;;2.58;1.85;;;10.40;78.80;;;;;;4993093;28;20037;-86
2022/02/06 05:34:59;;;;;;;2.75;1.90;;;10.40;78.80;;;;;;4993250;28;20477;-84
2022/02/06 05:37:26;;;;;;;2.22;1.70;;;10.40;78.90;;;;;;5006141;28;20024;-83
2022/02/06 05:39:53;;;;;;;2.78;2.10;;;10.40;78.90;;;;;;4991090;28;20084;-85
2022/02/06 05:42:20;;;;;;;2.60;1.63;;;10.40;78.90;;;;;;5006195;28;20495;-88
2022/02/06 05:44:55;;;;;;;2.08;1.75;;;10.50;78.90;;;;;;5005048;28;20029;-86
2022/02/06 05:47:22;;;;;;;2.10;1.88;;;10.40;78.90;;;;;;4996242;28;20042;-83
2022/02/06 05:49:48;;;;;;;2.80;1.80;;;10.40;78.80;;;;;;5022173;28;20106;-83
2022/02/06 05:52:14;;;;;;;3.15;2.03;;;10.50;78.90;;;;;;5014052;28;20029;-84
2022/02/06 05:54:40;;;;;;;2.80;2.03;;;10.40;78.80;;;;;;5034524;28;20053;-82
2022/02/06 05:57:06;;;;;;;4.45;2.22;;;10.40;78.80;;;;;;5013750;28;20026;-83
2022/02/06 05:59:32;;;;;;;3.97;2.20;;;10.50;78.90;;;;;;5029463;28;20022;-88
2022/02/06 06:01:58;;;;;;;2.72;2.10;;;10.50;78.90;;;;;;5028316;28;20033;-84
2022/02/06 06:04:23;;;;;;;2.25;1.83;;;10.50;78.90;;;;;;5004927;28;20463;-85
2022/02/06 06:06:49;;;;;;;3.63;2.17;;;10.50;78.90;;;;;;5030089;28;20467;-84
2022/02/06 06:09:15;;;;;;;3.03;1.77;;;10.50;78.90;;;;;;5025674;28;20034;-84
2022/02/06 06:11:41;;;;;;;2.35;1.75;;;10.50;78.90;;;;;;4998658;28;20041;-83
2022/02/06 06:14:07;;;;;;;4.22;2.08;;;10.50;78.90;;;;;;5005457;28;20061;-83
2022/02/06 06:16:34;;;;;;;3.67;2.03;;;10.50;78.90;;;;;;5002051;28;20475;-85
2022/02/06 06:19:01;;;;;;;3.90;2.35;;;10.50;78.90;;;;;;5002456;28;20045;-83
2022/02/06 06:21:30;;;;;;;2.88;2.28;;;10.50;78.90;;;;;;5006051;28;20108;-84
2022/02/06 06:23:56;;;;;;;4.53;2.20;;;10.50;78.90;;;;;;5015169;28;20033;-83
2022/02/06 06:26:25;;;;;;;3.28;2.00;;;10.50;78.90;;;;;;4989913;28;20026;-84
2022/02/06 06:28:50;;;;;;;3.25;2.20;;;10.50;78.90;;;;;;5001992;28;20045;-83
2022/02/06 06:31:16;;;;;;;3.47;1.88;;;10.60;78.90;;;;;;4998478;28;20470;-84
2022/02/06 06:33:42;;;;;;;3.55;2.05;;;10.50;78.80;;;;;;5008489;28;20030;-83
2022/02/06 06:36:08;;;;;;;3.30;1.88;;;10.50;78.80;;;;;;4997699;28;20022;-85
2022/02/06 06:38:35;;;;;;;4.28;2.10;;;10.60;78.90;;;;;;5009378;28;20026;-84
2022/02/06 06:41:02;;;;;;;2.83;2.05;;;10.50;78.90;;;;;;5001969;28;20017;-83
2022/02/06 06:43:28;;;;;;;3.08;2.28;;;10.50;78.90;;;;;;5000962;28;20052;-83
2022/02/06 06:45:54;;;;;;;4.53;2.33;;;10.60;78.90;;;;;;5002667;28;20030;-82
2022/02/06 06:48:19;;;;;;;3.50;2.40;;;10.60;78.90;;;;;;4999762;28;20030;-82
2022/02/06 06:50:45;;;;;;;4.07;2.30;;;10.60;78.90;;;;;;4999160;28;20034;-83
2022/02/06 06:53:12;;;;;;;2.78;1.92;;;10.60;78.90;;;;;;4998264;28;20422;-84
2022/02/06 06:55:42;;;;;;;2.95;2.40;;;10.60;78.90;;;;;;4966424;28;20459;-91
2022/02/06 06:58:23;;;;;;;3.85;2.20;;;10.60;78.90;;;;;;5035281;28;20041;-85
2022/02/06 07:03:35;;;;;;;2.92;2.05;;;10.60;78.90;;;;;;4980515;28;20100;-83
2022/02/06 07:06:02;;;;;;;3.03;2.28;;;10.60;78.90;;;;;;5004867;28;20041;-85
2022/02/06 07:08:28;;;;;;;3.97;2.33;;;10.60;78.90;;;;;;5005154;28;20494;-84
2022/02/06 07:10:53;;;;;;;2.83;2.17;;;10.60;78.90;;;;;;4981668;28;20097;-83
2022/02/06 07:13:23;;;;;;;2.35;1.98;;;10.60;78.90;;;;;;4997166;28;20092;-83
2022/02/06 07:15:52;;;;;;;2.88;2.30;;;10.60;78.90;;;;;;5004361;28;20091;-84
2022/02/06 07:18:19;;;;;;;2.50;2.13;;;10.70;79.00;;;;;;5013941;28;20106;-83
2022/02/06 07:20:46;;;;;;;2.45;2.10;;;10.60;78.90;;;;;;5009185;28;20036;-84
2022/02/06 07:23:13;;;;;;;2.85;2.20;;;10.60;78.90;;;;;;5008403;28;20026;-84
2022/02/06 07:25:41;;;;;;;2.80;1.83;;;10.60;78.90;;;;;;4996225;28;20030;-86
2022/02/06 07:28:15;;;;;;;2.70;2.10;;;10.60;78.90;;;;;;4982977;28;20033;-84
2022/02/06 07:30:43;;;;;;;2.55;1.92;;;10.70;78.90;;;;;;5002846;28;20034;-85
2022/02/06 07:33:09;;;;;;;2.78;2.17;;;10.70;78.90;;;;;;4997246;28;20041;-84
2022/02/06 07:35:35;;;;;;;2.90;2.00;;;10.70;78.90;;;;;;4996378;28;20500;-83
2022/02/06 07:38:01;;;;;;;2.13;1.92;;;10.70;78.90;;;;;;5019512;28;20025;-85
2022/02/06 07:40:27;;;;;;;2.47;2.03;;;10.70;78.90;;;;;;4990281;28;20033;-84
2022/02/06 07:42:52;;;;;;;3.50;2.50;;;10.70;78.90;;;;;;4992304;28;20036;-83
2022/02/06 07:45:24;;;;;;;2.30;1.92;;;10.70;78.90;;;;;;4994420;28;20568;-84
2022/02/06 07:47:50;;;;;;;2.70;2.15;;;10.70;78.90;;;;;;4998479;28;20033;-83
2022/02/06 07:50:16;;;;;;;2.85;2.20;;;10.70;78.90;;;;;;4994457;28;20092;-85
2022/02/06 07:52:43;;;;;;;2.90;2.20;;;10.70;78.90;;;;;;5008049;28;20033;-84
2022/02/06 07:55:10;;;;;;;3.35;2.28;;;10.70;78.90;;;;;;5011833;28;20041;-84
2022/02/06 07:57:38;;;;;;;2.65;2.15;;;10.70;78.90;;;;;;4999271;28;20033;-88
2022/02/06 08:00:06;;;;;;;3.20;2.17;;;10.70;78.90;;;;;;5011302;28;20033;-82
2022/02/06 08:02:37;;;;;;;2.20;2.00;;;10.70;78.90;;;;;;4999368;28;20133;-82
2022/02/06 08:05:03;;;;;;;4.22;2.10;;;10.70;78.90;;;;;;4981029;28;20510;-82
2022/02/06 08:07:30;;;;;;;3.67;2.15;;;10.70;78.90;;;;;;4998296;28;20117;-82
2022/02/06 08:09:58;;;;;;;2.30;2.10;;;10.70;78.90;;;;;;5000235;28;20040;-82
2022/02/06 08:12:30;;;;;;;2.20;1.80;;;10.80;79.00;;;;;;4981047;28;20021;-83
2022/02/06 08:15:03;;;;;;;2.85;1.95;;;10.70;78.90;;;;;;4998669;28;20026;-82
2022/02/06 08:17:35;;;;;;;2.75;2.10;;;10.70;78.90;;;;;;5016218;28;20029;-86
2022/02/06 08:20:06;;;;;;;2.60;2.20;;;10.80;79.00;;;;;;5000250;28;20046;-82
2022/02/06 08:22:32;;;;;;;2.65;2.00;;;10.70;78.90;;;;;;5016341;28;20087;-83
2022/02/06 08:24:58;;;;;;;2.30;2.10;;;10.70;78.90;;;;;;5016456;28;20021;-83
2022/02/06 08:27:26;;;;;;;2.88;2.25;;;10.70;78.90;;;;;;4996826;28;20088;-85
2022/02/06 08:29:52;;;;;;;2.67;2.25;;;10.70;78.90;;;;;;4996526;28;20032;-82
2022/02/06 08:32:21;;;;;;;3.28;2.20;;;10.80;79.00;;;;;;5002948;28;20174;-82
2022/02/06 08:34:48;;;;;;;2.42;2.13;;;10.80;79.00;;;;;;5000488;28;20030;-84
2022/02/06 08:37:15;;;;;;;2.17;1.98;;;10.80;79.00;;;;;;4984520;28;20018;-82
2022/02/06 08:39:41;;;;;;;2.60;2.28;;;10.80;79.00;;;;;;5019387;28;20463;-82
2022/02/06 08:42:09;;;;;;;3.47;2.42;;;10.80;79.00;;;;;;4979296;28;20117;-82
2022/02/06 08:44:41;;;;;;;2.65;2.05;;;10.80;79.00;;;;;;4997737;28;20021;-82
2022/02/06 08:47:11;;;;;;;3.67;2.40;;;10.80;79.00;;;;;;5013343;28;20595;-82
2022/02/06 08:49:37;;;;;;;2.33;2.00;;;10.80;79.00;;;;;;4981827;28;20044;-82
2022/02/06 08:52:05;;;;;;;2.90;2.28;;;10.80;79.00;;;;;;5014454;28;20079;-83
2022/02/06 08:54:35;;;;;;;2.38;1.80;;;10.80;78.90;;;;;;4994712;28;20037;-82
2022/02/06 08:57:05;;;;;;;2.90;2.38;;;10.80;78.90;;;;;;4991564;28;20072;-81
2022/02/06 08:59:33;;;;;;;3.58;2.10;;;10.80;78.90;;;;;;5019731;28;20061;-86
2022/02/06 09:01:59;;;;;;;2.78;2.10;;;10.80;78.90;;;;;;4995857;28;20030;-82
2022/02/06 09:04:27;;;;;;;2.53;2.33;;;10.80;79.00;;;;;;4979632;28;20033;-84
2022/02/06 09:06:57;;;;;;;1.80;1.63;;;10.80;79.00;;;;;;4985972;28;20025;-82
2022/02/06 09:09:24;;;;;;;3.13;2.30;;;10.80;78.90;;;;;;5016402;28;20025;-84
2022/02/06 09:11:52;;;;;;;2.95;2.00;;;10.80;78.90;;;;;;5004578;28;20035;-85
2022/02/06 09:14:19;;;;;;;2.80;1.90;;;10.80;78.90;;;;;;5005885;28;20091;-84
2022/02/06 09:16:45;;;;;;;2.10;1.90;;;10.90;79.00;;;;;;4989156;28;20022;-84
2022/02/06 09:19:12;;;;;;;2.25;1.92;;;10.90;79.00;;;;;;4984789;28;20046;-87
2022/02/06 09:21:39;;;;;;;2.03;1.70;;;10.80;78.90;;;;;;4992701;28;20034;-83
2022/02/06 09:24:06;;;;;;;2.22;1.75;;;10.80;78.90;;;;;;5000203;28;20062;-87
2022/02/06 09:26:33;;;;;;;2.10;1.90;;;10.80;78.90;;;;;;5002965;28;20025;-85
2022/02/06 09:28:59;;;;;;;2.33;1.90;;;10.90;79.00;;;;;;5019765;28;20426;-84
2022/02/06 09:31:26;;;;;;;2.65;1.85;;;10.90;78.90;;;;;;4998474;28;20363;-82
2022/02/06 09:36:20;;;;;;;1.98;1.70;;;10.90;78.90;;;;;;5035719;28;20098;-85
2022/02/06 09:38:46;;;;;;;2.35;1.88;;;10.90;78.90;;;;;;5037093;28;20025;-86
2022/02/06 09:41:12;;;;;;;2.10;1.90;;;10.90;78.90;;;;;;4990127;28;20037;-85
2022/02/06 09:43:38;;;;;;;2.13;1.63;;;10.90;78.90;;;;;;4996571;28;20030;-83
2022/02/06 09:46:04;;;;;;;1.90;1.70;;;10.90;79.00;;;;;;5024630;28;20036;-84
2022/02/06 09:48:32;;;;;;;1.67;1.50;;;10.90;78.90;;;;;;5030595;28;20037;-83
2022/02/06 09:50:59;;;;;;;1.60;1.50;;;10.90;78.90;;;;;;5046415;28;20032;-82
2022/02/06 09:53:32;;;;;;;1.77;1.67;;;10.90;78.90;;;;;;5032054;28;20030;-83
2022/02/06 09:56:07;;;;;;;1.83;1.60;;;10.90;78.90;;;;;;4984491;28;20038;-86
2022/02/06 09:58:56;;;;;;;2.13;1.70;;;10.90;78.90;;;;;;4982750;28;20099;-80
2022/02/06 10:01:24;;;;;;;2.00;1.63;;;11.00;79.00;;;;;;4995349;28;20112;-83
2022/02/06 10:03:55;;;;;;;2.20;1.70;;;11.00;78.90;;;;;;5017449;28;20053;-84
2022/02/06 10:06:23;;;;;;;1.85;1.67;;;10.90;78.90;;;;;;5034907;28;20036;-83
2022/02/06 10:08:59;;;;;;;3.03;1.80;;;10.90;78.90;;;;;;4982357;28;20026;-81
2022/02/06 10:11:29;;;;;;;2.20;1.77;;;10.90;79.00;;;;;;4997644;28;20045;-81
2022/02/06 10:13:55;;;;;;;2.38;1.50;;;11.00;79.00;;;;;;4999732;28;20026;-82
2022/02/06 10:16:21;;;;;;;2.42;1.70;;;11.00;78.90;;;;;;4998041;28;20032;-80
2022/02/06 10:18:47;;;;;;;2.03;1.75;;;10.90;79.00;;;;;;5001758;28;20104;-81
2022/02/06 10:21:19;;;;;;;1.73;1.63;;;11.00;79.00;;;;;;4995999;28;20030;-81
2022/02/06 10:23:58;;;;;;;2.75;1.60;;;11.00;79.00;;;;;;5006171;28;20034;-83
2022/02/06 10:31:55;;;;;;;1.67;1.48;;;11.00;79.00;;;;;;5013471;28;20048;-80
2022/02/06 10:34:23;;;;;;;1.85;1.40;;;11.00;79.00;;;;;;4996526;28;20126;-83
2022/02/06 10:37:10;;;;;;;1.30;1.20;;;11.00;79.00;;;;;;4990289;28;20028;-81
2022/02/06 10:40:04;;;;;;;1.50;1.35;;;11.00;79.00;;;;;;5011136;28;20033;-83
2022/02/06 10:42:38;;;;;;;1.83;1.50;;;11.00;79.10;;;;;;4998949;28;20308;-82
2022/02/06 10:45:17;;;;;;;1.40;1.30;;;11.00;79.00;;;;;;5012114;28;20026;-82
2022/02/06 10:47:45;;;;;;;1.30;1.20;;;11.00;79.00;;;;;;4996306;28;20038;-82
2022/02/06 10:50:13;;;;;;;1.30;1.20;;;11.00;79.00;;;;;;5011232;28;20022;-83
2022/02/06 10:52:40;;;;;;;1.55;1.45;;;11.00;79.00;;;;;;5028857;28;20278;-83
2022/02/06 10:55:06;;;;;;;1.95;1.40;;;11.00;79.00;;;;;;5032843;28;20068;-82
2022/02/06 10:57:33;;;;;;;1.60;1.30;;;11.00;79.00;;;;;;4994728;28;20453;-81
2022/02/06 11:00:00;;;;;;;1.35;1.17;;;11.00;79.00;;;;;;4980406;28;20471;-83
2022/02/06 11:02:57;;;;;;;1.20;1.15;;;11.10;79.00;;;;;;5004681;28;20036;-82
2022/02/06 11:05:32;;;;;;;1.77;1.33;;;11.00;79.10;;;;;;4989477;28;20406;-86
2022/02/06 11:08:03;;;;;;;1.30;1.20;;;11.10;79.00;;;;;;4990398;28;20037;-80
2022/02/06 11:10:31;;;;;;;1.20;1.13;;;11.00;79.00;;;;;;4961260;28;20049;-82
2022/02/06 11:12:59;;;;;;;1.50;1.20;;;11.10;79.10;;;;;;5005110;28;20085;-80
2022/02/06 11:15:37;;;;;;;1.45;1.35;;;11.10;79.00;;;;;;4994225;28;20057;-80
2022/02/06 11:18:14;;;;;;;1.15;1.10;;;11.10;79.00;;;;;;4985727;28;20053;-82
2022/02/06 11:20:55;;;;;;;1.35;1.10;;;11.10;79.10;;;;;;4965261;28;20041;-82
2022/02/06 11:23:22;;;;;;;1.10;1.10;;;11.10;79.60;;;;;;4993049;28;20402;-81
2022/02/06 11:25:50;;;;;;;1.40;1.30;;;11.10;79.00;;;;;;5001763;28;20017;-81
2022/02/06 11:28:17;;;;;;;1.23;1.13;;;11.10;79.00;;;;;;5013669;28;20029;-80
2022/02/06 11:30:50;;;;;;;1.30;1.20;;;11.10;79.00;;;;;;4970610;28;20490;-80
2022/02/06 11:33:17;;;;;;;1.15;1.05;;;11.10;79.00;;;;;;4961106;28;20077;-80
2022/02/06 11:35:53;;;;;;;1.27;1.17;;;11.10;79.70;;;;;;4990301;28;20053;-80
2022/02/06 11:44:17;;;;;;;1.20;1.10;;;11.10;79.00;;;;;;4993343;28;20077;-82
2022/02/06 11:47:11;;;;;;;1.70;1.20;;;11.10;79.10;;;;;;4991035;28;20080;-80
2022/02/06 11:49:40;;;;;;;1.35;1.20;;;11.10;79.20;;;;;;4979765;28;20068;-81
2022/02/06 11:52:07;;;;;;;0.95;0.95;;;11.20;79.10;;;;;;4985147;28;20018;-80
2022/02/06 11:54:47;;;;;;;1.52;1.20;;;11.10;79.10;;;;;;4961489;28;20029;-79
2022/02/06 12:00:22;;;;;;;1.80;1.30;;;11.10;79.10;;;;;;4993445;28;20070;-80
2022/02/06 12:02:52;;;;;;;1.10;1.10;;;11.10;79.30;;;;;;5003890;28;20034;-80
2022/02/06 12:05:32;;;;;;;1.35;1.10;;;11.10;79.00;;;;;;4988181;28;20033;-80
2022/02/06 12:08:10;;;;;;;1.02;1.02;;;11.10;79.20;;;;;;5009928;28;20057;-81
2022/02/06 12:10:36;;;;;;;1.65;1.08;;;11.20;79.20;;;;;;4970879;28;20115;-80
2022/02/06 12:13:23;;;;;;;1.15;1.10;;;11.20;79.10;;;;;;4993732;28;20030;-82
2022/02/06 12:16:09;;;;;;;0.98;0.90;;;11.20;79.20;;;;;;4995947;28;20465;-80
2022/02/06 12:18:38;;;;;;;1.70;1.00;;;11.20;79.10;;;;;;5004880;28;20064;-80
2022/02/06 12:21:19;;;;;;;0.90;0.80;;;11.20;79.10;;;;;;4957984;28;1222371;-80
2022/02/06 12:23:58;;;;;;;0.80;0.80;;;11.20;79.20;;;;;;4977733;28;20879;-81
2022/02/06 12:26:31;;;;;;;1.73;1.00;;;11.20;79.20;;;;;;5010295;28;20040;-83
2022/02/06 12:28:59;;;;;;;1.38;0.90;;;11.20;79.10;;;;;;5032562;28;20190;-81
2022/02/06 12:31:30;;;;;;;0.95;0.85;;;11.20;79.10;;;;;;5013856;28;20036;-86
2022/02/06 12:39:23;;;;;;;0.80;0.80;;;11.20;79.20;;;;;;5030099;28;20028;-83
2022/02/06 12:41:49;;;;;;;0.88;0.80;;;11.20;79.00;;;;;;5015553;28;20033;-88
2022/02/06 12:44:16;;;;;;;1.00;0.80;;;11.20;79.00;;;;;;5000637;28;20108;-81
2022/02/06 12:46:46;;;;;;;0.88;0.82;;;11.10;79.00;;;;;;5016154;28;20021;-81
2022/02/06 12:49:20;;;;;;;0.75;0.70;;;11.10;79.00;;;;;;5015398;28;20486;-84
2022/02/06 12:51:53;;;;;;;0.80;0.80;;;11.10;78.90;;;;;;5026950;28;20032;-80
2022/02/06 12:54:21;;;;;;;0.73;0.73;;;11.20;79.00;;;;;;5022885;28;20409;-81
2022/02/06 12:56:46;;;;;;;0.70;0.70;;;11.10;78.90;;;;;;5015068;28;20466;-80
2022/02/06 12:59:20;;;;;;;1.02;0.80;;;11.10;78.90;;;;;;5033853;28;20112;-80
2022/02/06 13:01:47;;;;;;;0.70;0.70;;;11.10;79.00;;;;;;5016604;28;20051;-83
2022/02/06 13:04:22;;;;;;;0.80;0.80;;;11.10;78.90;;;;;;5016682;28;20025;-80
2022/02/06 13:06:52;;;;;;;0.80;0.80;;;11.10;78.90;;;;;;5016972;28;20036;-82
2022/02/06 13:09:25;;;;;;;0.82;0.75;;;11.10;78.90;;;;;;5013848;28;20113;-82
2022/02/06 13:17:34;;;;;;;1.45;0.82;;;11.10;78.90;;;;;;5013006;28;20065;-82
2022/02/06 13:28:08;;;;;;;1.00;0.90;;;11.10;78.90;;;;;;5023584;28;20028;-81
2022/02/06 13:30:57;;;;;;;0.80;0.80;;;11.00;79.00;;;;;;5016295;28;20059;-81
2022/02/06 13:34:00;;;;;;;1.33;0.90;;;11.10;78.90;;;;;;5038117;28;20094;-83
2022/02/06 13:38:59;;;;;;;1.10;1.00;;;11.00;78.90;;;;;;5020675;28;20082;-81
2022/02/06 13:41:31;;;;;;;1.20;1.10;;;11.00;79.00;;;;;;5038174;28;20059;-83
2022/02/06 13:44:02;;;;;;;2.20;0.80;;;11.00;79.00;;;;;;5023714;28;20113;-79
2022/02/06 13:46:34;;;;;;;0.80;0.80;;;11.00;79.00;;;;;;5016324;28;20108;-80
2022/02/06 13:49:02;;;;;;;1.20;0.82;;;11.00;79.00;;;;;;5024823;28;20060;-84
2022/02/06 13:51:38;;;;;;;0.80;0.80;;;11.00;79.00;;;;;;4991075;28;20101;-80
2022/02/06 13:54:05;;;;;;;1.60;1.05;;;11.00;79.00;;;;;;5053050;28;20071;-80
2022/02/06 13:56:34;;;;;;;1.00;0.90;;;11.00;79.00;;;;;;5038337;28;20024;-80
2022/02/06 13:59:03;;;;;;;2.17;1.13;;;10.90;79.00;;;;;;5057746;28;20111;-79
2022/02/06 14:01:39;;;;;;;1.27;1.00;;;10.90;79.00;;;;;;5016668;28;20030;-79
2022/02/06 14:04:06;;;;;;;1.45;1.05;;;10.90;79.00;;;;;;5000265;28;20030;-81
2022/02/06 14:06:42;;;;;;;1.98;1.00;;;10.90;79.00;;;;;;5000408;28;20034;-81
2022/02/06 14:09:15;;;;;;;2.13;1.05;;;10.90;79.00;;;;;;4982166;28;20030;-79
2022/02/06 14:12:20;;;;;;;2.10;0.80;;;10.90;79.00;;;;;;4984832;28;20121;-79
2022/02/06 14:14:59;;;;;;;0.85;0.85;;;10.90;79.20;;;;;;4980470;28;20026;-80
2022/02/06 14:17:30;;;;;;;1.40;0.90;;;10.90;79.00;;;;;;4986519;28;20037;-79
2022/02/06 14:19:59;;;;;;;1.13;0.95;;;10.90;79.00;;;;;;5015001;28;20055;-80
2022/02/06 14:22:35;;;;;;;0.88;0.88;;;10.90;79.00;;;;;;5034457;28;20038;-82
2022/02/06 14:25:05;;;;;;;0.95;0.88;;;10.90;79.20;;;;;;5015304;28;20029;-80
2022/02/06 14:27:35;;;;;;;1.88;1.05;;;10.90;79.00;;;;;;5039810;28;20051;-80
2022/02/06 14:30:11;;;;;;;2.30;0.95;;;10.90;79.10;;;;;;5019741;28;20075;-80
2022/02/06 14:33:01;;;;;;;1.55;1.10;;;10.90;79.00;;;;;;5017666;28;20091;-86
2022/02/06 14:35:58;;;;;;;1.30;1.08;;;10.90;79.10;;;;;;5008150;28;20056;-82
2022/02/06 14:38:39;;;;;;;0.90;0.90;;;10.80;79.00;;;;;;5027465;28;20029;-81
2022/02/06 14:44:06;;;;;;;0.90;0.90;;;10.90;79.00;;;;;;5017364;28;20045;-80
2022/02/06 14:46:34;;;;;;;2.30;1.33;;;10.90;79.00;;;;;;5001278;28;20053;-81
2022/02/06 14:49:06;;;;;;;1.58;0.80;;;10.90;79.00;;;;;;5015714;28;20057;-84
2022/02/06 14:51:37;;;;;;;2.25;1.08;;;10.90;79.00;;;;;;5032391;28;20021;-80
2022/02/06 14:54:05;;;;;;;1.65;1.15;;;10.90;79.10;;;;;;5016029;28;20042;-80
2022/02/06 14:56:33;;;;;;;1.65;0.90;;;10.80;79.00;;;;;;5013904;28;20045;-79
2022/02/06 14:59:00;;;;;;;1.45;1.02;;;10.90;79.00;;;;;;5010760;28;20030;-78
2022/02/06 15:01:26;;;;;;;1.02;0.93;;;10.80;79.60;;;;;;5036191;28;20020;-83
2022/02/06 15:03:53;;;;;;;1.70;1.10;;;10.90;79.10;;;;;;5017356;28;20033;-79
2022/02/06 15:06:18;;;;;;;2.20;1.20;;;10.90;79.00;;;;;;5015274;28;20128;-79
2022/02/06 15:08:45;;;;;;;1.70;1.25;;;10.90;79.00;;;;;;5018295;28;20037;-79
2022/02/06 15:11:10;;;;;;;1.98;1.00;;;10.90;79.00;;;;;;5015790;28;20030;-83
2022/02/06 15:13:36;;;;;;;1.67;1.02;;;10.90;79.00;;;;;;5016527;28;20091;-79
2022/02/06 15:16:16;;;;;;;2.05;1.52;;;10.90;79.00;;;;;;5017694;28;20029;-81
2022/02/06 15:18:53;;;;;;;2.22;1.10;;;10.90;79.00;;;;;;4999824;28;20117;-79
2022/02/06 15:21:19;;;;;;;2.10;1.20;;;10.90;78.90;;;;;;5011346;28;20046;-79
2022/02/06 15:23:45;;;;;;;2.58;1.20;;;10.90;78.90;;;;;;5009924;28;20486;-83
2022/02/06 15:26:20;;;;;;;2.17;1.10;;;10.90;78.90;;;;;;5038907;28;20021;-81
2022/02/06 15:28:50;;;;;;;2.63;1.20;;;10.90;78.90;;;;;;5011904;28;20033;-81
2022/02/06 15:31:16;;;;;;;3.42;1.10;;;10.90;78.90;;;;;;5005275;28;20033;-82
2022/02/06 15:33:43;;;;;;;1.33;1.02;;;10.90;78.90;;;;;;4982617;28;20121;-81
2022/02/06 15:36:09;;;;;;;2.03;1.00;;;10.90;78.90;;;;;;5007255;28;20030;-81
2022/02/06 15:38:37;;;;;;;2.22;1.00;;;10.90;78.90;;;;;;4981820;28;20048;-81
2022/02/06 15:41:03;;;;;;;0.88;0.82;;;10.90;78.90;;;;;;5007405;28;20827;-82
2022/02/06 15:43:29;;;;;;;1.83;1.00;;;10.90;78.80;;;;;;5027496;28;20037;-80
2022/02/06 15:45:55;;;;;;;3.08;1.20;;;10.90;78.80;;;;;;5009611;28;20032;-81
2022/02/06 15:48:22;;;;;;;1.65;1.00;;;10.90;78.80;;;;;;5017787;28;20458;-81
2022/02/06 15:50:48;;;;;;;1.98;1.00;;;10.90;78.70;;;;;;5020428;28;20029;-83
2022/02/06 15:53:15;;;;;;;1.02;0.90;;;10.90;78.70;;;;;;4984379;28;20036;-80
2022/02/06 15:55:41;;;;;;;2.08;1.20;;;10.90;78.70;;;;;;5031075;28;20025;-81